Time;durP1;ratioP1;P1;durP2;ratioP2;P2;SDS_P1;SDS_P2;PMS_P1;PMS_P2;Temp;Humidity;BMP_temperature;BMP_pressure;BME280_temperature;BME280_humidity;BME280_pressure;Samples;Min_cycle;Max_cycle;Signal;HPM_P1;HPM_P2
2022/11/19 00:00:01;;;;;;;;;10.50;9.75;;;;;9.44;67.23;100834.53;3059589;22;45165;-80
2022/11/19 00:01:15;;;;;;;;;15.00;10.25;;;;;9.44;67.67;100834.53;3042516;22;46848;-80
2022/11/19 00:02:25;;;;;;;;;9.75;9.00;;;;;9.45;67.39;100841.50;3048280;22;45203;-80
2022/11/19 00:03:37;;;;;;;;;11.00;10.00;;;;;9.44;67.45;100831.03;3059237;22;46255;-80
2022/11/19 00:04:48;;;;;;;;;12.50;11.00;;;;;9.44;67.63;100833.66;3059395;22;45254;-80
2022/11/19 00:06:09;;;;;;;;;11.00;10.25;;;;;9.44;67.60;100836.28;3042476;22;47804;-80
2022/11/19 00:07:19;;;;;;;;;8.75;7.50;;;;;9.43;67.12;100837.22;3050553;22;45232;-80
2022/11/19 00:08:29;;;;;;;;;5.75;5.50;;;;;9.44;66.97;100838.91;3059604;22;45383;-80
2022/11/19 00:09:40;;;;;;;;;8.00;6.75;;;;;9.40;67.42;100840.78;3042974;22;44708;-80
2022/11/19 00:10:50;;;;;;;;;10.00;8.00;;;;;9.38;67.53;100839.09;3042080;22;47195;-80
2022/11/19 00:13:29;;;;;;;;;8.00;7.00;;;;;9.36;67.32;100833.03;3052039;22;45200;-79
2022/11/19 00:14:39;;;;;;;;;11.50;8.25;;;;;9.36;67.13;100833.84;3043080;22;45269;-79
2022/11/19 00:15:50;;;;;;;;;8.00;7.00;;;;;9.34;67.04;100833.91;3047798;22;46183;-80
2022/11/19 00:17:00;;;;;;;;;7.25;7.25;;;;;9.34;67.53;100835.66;3059647;22;45233;-80
2022/11/19 00:18:11;;;;;;;;;7.00;6.75;;;;;9.35;67.44;100837.41;3058548;22;46067;-79
2022/11/19 00:19:21;;;;;;;;;7.25;6.75;;;;;9.37;68.03;100837.34;3043027;22;45184;-79
2022/11/19 00:20:33;;;;;;;;;10.00;9.75;;;;;9.38;67.51;100837.34;3047888;22;45268;-79
2022/11/19 00:21:44;;;;;;;;;7.50;6.00;;;;;9.36;67.56;100836.47;3042295;22;45101;-80
2022/11/19 00:22:56;;;;;;;;;7.50;7.00;;;;;9.34;67.14;100827.78;3047869;22;45229;-79
2022/11/19 00:24:07;;;;;;;;;6.50;5.25;;;;;9.33;67.44;100832.19;3059631;22;45318;-82
2022/11/19 00:25:18;;;;;;;;;8.00;6.50;;;;;9.33;67.35;100833.97;3042909;22;48137;-81
2022/11/19 00:26:28;;;;;;;;;9.00;8.00;;;;;9.29;67.14;100830.53;3048143;22;45275;-82
2022/11/19 00:27:38;;;;;;;;;6.25;6.25;;;;;9.27;67.20;100831.47;3059365;22;46683;-82
2022/11/19 00:28:49;;;;;;;;;7.00;5.75;;;;;9.27;67.38;100831.47;3059064;22;45286;-81
2022/11/19 00:29:59;;;;;;;;;6.50;6.50;;;;;9.26;67.27;100829.78;3058114;22;47053;-82
2022/11/19 00:31:12;;;;;;;;;12.00;9.25;;;;;9.23;67.67;100830.72;3059066;22;45211;-81
2022/11/19 00:32:22;;;;;;;;;7.75;6.00;;;;;9.23;67.38;100825.47;3059260;22;45375;-81
2022/11/19 00:33:33;;;;;;;;;7.00;7.00;;;;;9.23;67.42;100818.44;3058045;22;45101;-82
2022/11/19 00:34:44;;;;;;;;;9.00;7.75;;;;;9.25;67.85;100825.41;3042337;22;47781;-81
2022/11/19 00:35:55;;;;;;;;;8.25;7.00;;;;;9.25;67.75;100830.66;3047982;22;45302;-81
2022/11/19 00:37:06;;;;;;;;;8.00;7.75;;;;;9.23;67.63;100830.72;3057556;22;46327;-81
2022/11/19 00:38:16;;;;;;;;;8.00;7.00;;;;;9.20;67.71;100821.16;3042472;22;45271;-82
2022/11/19 00:39:26;;;;;;;;;10.00;7.50;;;;;9.21;67.76;100820.25;3046746;22;46431;-82
2022/11/19 08:34:53;;;;;;;;;11.50;9.75;;;;;9.81;68.30;101099.56;2988884;22;69163;-82
2022/11/19 08:36:04;;;;;;;;;10.75;10.50;;;;;9.84;68.32;101109.13;3042656;22;47161;-82
2022/11/19 08:37:14;;;;;;;;;12.25;9.25;;;;;9.86;68.48;101102.94;3026179;22;45180;-82
2022/11/19 08:38:24;;;;;;;;;10.75;10.00;;;;;9.89;68.19;101110.75;2982287;23;46191;-82
2022/11/19 08:39:36;;;;;;;;;13.25;10.25;;;;;9.93;68.36;101108.03;3042254;22;44638;-82
2022/11/19 08:40:51;;;;;;;;;11.00;10.25;;;;;9.94;68.29;101105.38;3032538;22;47019;-82
2022/11/19 08:43:30;;;;;;;;;11.75;10.00;;;;;10.02;67.97;101105.22;2982274;23;45242;-82
2022/11/19 08:44:41;;;;;;;;;9.00;7.50;;;;;10.05;67.87;101113.00;3042415;22;44702;-81
2022/11/19 08:45:55;;;;;;;;;10.00;8.25;;;;;10.08;67.81;101115.53;3026615;22;45249;-82
2022/11/19 08:47:06;;;;;;;;;10.00;9.00;;;;;10.10;67.89;101119.00;2982297;23;44503;-82
2022/11/19 08:48:16;;;;;;;;;12.50;10.25;;;;;10.16;68.19;101114.50;2982325;23;45198;-82
2022/11/19 08:49:26;;;;;;;;;12.00;11.00;;;;;10.20;67.80;101116.13;2982048;23;45126;-81
2022/11/19 08:50:36;;;;;;;;;7.00;7.00;;;;;10.23;68.08;101116.06;3058042;22;46721;-81
2022/11/19 08:51:47;;;;;;;;;13.75;10.50;;;;;10.27;67.67;101117.72;3037267;22;45197;-81
2022/11/19 08:52:59;;;;;;;;;10.50;9.75;;;;;10.31;67.43;101118.50;3042838;22;47159;-81
2022/11/19 08:54:11;;;;;;;;;12.00;9.75;;;;;10.34;67.58;101115.81;3024414;22;45364;-81
2022/11/19 08:55:22;;;;;;;;;10.50;9.00;;;;;10.38;67.62;101120.06;2982272;23;45595;-81
2022/11/19 08:56:33;;;;;;;;;13.00;11.00;;;;;10.43;67.23;101123.44;2982405;23;45278;-81
2022/11/19 08:57:43;;;;;;;;;12.75;10.25;;;;;10.44;67.21;101124.31;2982222;23;45211;-81
2022/11/19 08:58:53;;;;;;;;;10.50;7.50;;;;;10.49;66.91;101126.81;2981359;23;45260;-81
2022/11/19 09:00:04;;;;;;;;;10.75;9.50;;;;;10.49;67.17;101119.78;3042165;22;46953;-81
2022/11/19 09:01:16;;;;;;;;;9.75;9.75;;;;;10.51;67.22;101128.53;3026151;22;44592;-81
2022/11/19 09:02:27;;;;;;;;;11.00;10.75;;;;;10.54;67.20;101120.53;2982021;23;45244;-81
2022/11/19 09:03:38;;;;;;;;;8.00;8.00;;;;;10.56;66.92;101129.28;2982566;23;45159;-81
2022/11/19 09:04:49;;;;;;;;;12.25;9.50;;;;;10.58;66.95;101122.19;2981825;23;45349;-81
2022/11/19 09:05:59;;;;;;;;;9.75;8.00;;;;;10.60;66.87;101124.78;2981991;23;45265;-81
2022/11/19 09:07:10;;;;;;;;;12.50;11.00;;;;;10.64;66.82;101122.94;2982144;23;45375;-81
2022/11/19 09:08:20;;;;;;;;;13.75;10.75;;;;;10.67;67.26;101126.34;3042565;22;45195;-81
2022/11/19 09:09:30;;;;;;;;;11.00;10.00;;;;;10.70;66.87;101120.13;3026001;22;46142;-81
2022/11/19 09:10:41;;;;;;;;;9.00;8.50;;;;;10.74;66.81;101127.03;3057466;22;44626;-81
2022/11/19 09:11:51;;;;;;;;;12.00;9.25;;;;;10.78;66.76;101133.94;3037082;22;45387;-81
2022/11/19 09:13:02;;;;;;;;;10.25;7.00;;;;;10.82;66.13;101131.22;3042956;22;44688;-81
2022/11/19 09:14:13;;;;;;;;;10.00;9.75;;;;;10.80;66.39;101129.50;3025345;22;45258;-81
2022/11/19 09:15:23;;;;;;;;;9.75;8.25;;;;;10.84;66.72;101132.88;3042724;22;45285;-81
2022/11/19 09:16:35;;;;;;;;;7.50;7.50;;;;;10.85;66.13;101133.75;3025615;22;46306;-82
2022/11/19 09:17:46;;;;;;;;;13.00;10.25;;;;;10.87;66.45;101139.84;2981978;22;44600;-82
2022/11/19 09:18:56;;;;;;;;;9.50;9.50;;;;;10.87;66.36;101126.69;2981799;23;46052;-81
2022/11/19 09:20:07;;;;;;;;;11.25;8.75;;;;;10.88;65.60;101133.69;3042469;22;44568;-81
2022/11/19 09:21:18;;;;;;;;;13.00;10.25;;;;;10.88;65.71;101131.06;3025580;22;45140;-82
2022/11/19 09:22:30;;;;;;;;;9.00;9.00;;;;;10.90;65.97;101134.50;2981758;23;45179;-81
2022/11/19 09:23:41;;;;;;;;;13.25;9.25;;;;;10.92;66.05;101135.31;2981990;23;45514;-80
2022/11/19 09:24:51;;;;;;;;;8.50;8.50;;;;;10.95;66.22;101134.38;2982313;23;45222;-81
2022/11/19 09:26:11;;;;;;;;;8.75;8.75;;;;;10.97;66.35;101130.78;2980324;23;45237;-81
2022/11/19 09:27:22;;;;;;;;;8.00;8.00;;;;;11.00;66.02;101122.81;2979675;23;44629;-82
2022/11/19 09:28:33;;;;;;;;;9.00;8.25;;;;;11.02;66.41;101126.25;3056730;22;46911;-81
2022/11/19 09:29:43;;;;;;;;;9.50;8.50;;;;;11.06;66.43;101121.78;3042344;22;44743;-81
2022/11/19 09:30:57;;;;;;;;;10.75;9.50;;;;;11.12;65.97;101131.25;3030702;22;47365;-81
2022/11/19 09:32:08;;;;;;;;;10.00;9.00;;;;;11.13;65.55;101125.97;3022664;22;44608;-81
2022/11/19 09:33:18;;;;;;;;;13.00;10.00;;;;;11.16;65.73;101126.78;2981846;23;45245;-82
2022/11/19 09:34:29;;;;;;;;;13.75;9.50;;;;;11.16;65.39;101124.16;2981388;23;45167;-81
2022/11/19 09:35:39;;;;;;;;;13.00;10.75;;;;;11.19;65.59;101127.53;2981509;23;45487;-81
2022/11/19 09:36:50;;;;;;;;;9.00;9.00;;;;;11.22;65.64;101126.59;3056734;22;45191;-81
2022/11/19 09:38:01;;;;;;;;;9.50;7.75;;;;;11.24;65.30;101130.03;3035654;22;45713;-81
2022/11/19 09:39:11;;;;;;;;;9.25;9.00;;;;;11.27;65.62;101135.22;2982097;23;45223;-81
2022/11/19 09:40:22;;;;;;;;;9.25;7.75;;;;;11.29;65.47;101130.75;3057236;22;47491;-81
2022/11/19 09:41:48;;;;;;;;;11.00;9.50;;;;;11.33;65.28;101134.19;3034838;22;45377;-82
2022/11/19 09:43:19;;;;;;;;;10.75;9.25;;;;;11.34;64.91;101131.47;2981342;23;46619;-82
2022/11/19 09:44:48;;;;;;;;;9.00;7.25;;;;;11.37;65.21;101135.78;2981317;23;44623;-82
2022/11/19 09:46:28;;;;;;;;;11.00;8.75;;;;;11.39;65.34;101144.50;2980850;23;45446;-81
2022/11/19 09:47:53;;;;;;;;;11.75;10.75;;;;;11.43;65.46;101140.03;3042014;22;45199;-81
2022/11/19 09:49:10;;;;;;;;;6.75;6.75;;;;;11.46;65.19;101143.41;3048582;22;47254;-81
2022/11/19 09:50:30;;;;;;;;;13.75;10.50;;;;;11.46;64.74;101134.66;3042060;22;44709;-81
2022/11/19 09:51:49;;;;;;;;;10.75;9.00;;;;;11.49;64.82;101137.19;3017658;22;46538;-81
2022/11/19 09:53:05;;;;;;;;;9.00;9.00;;;;;11.52;64.89;101139.75;3057665;22;45316;-82
2022/11/19 09:54:19;;;;;;;;;11.00;8.00;;;;;11.54;64.79;101137.91;3042536;22;46966;-81
2022/11/19 09:55:36;;;;;;;;;9.75;9.00;;;;;11.58;65.29;101143.97;3047767;22;45339;-82
2022/11/19 09:56:49;;;;;;;;;12.75;10.00;;;;;11.62;65.22;101140.31;3030299;22;46164;-82
2022/11/19 09:58:03;;;;;;;;;13.25;12.50;;;;;11.66;64.98;101136.66;3057646;22;45343;-82
2022/11/19 09:59:46;;;;;;;;;14.50;12.50;;;;;11.74;64.94;101136.44;3042408;22;47844;-81
2022/11/19 10:00:58;;;;;;;;;12.00;11.50;;;;;11.77;64.92;101132.84;3007894;22;44736;-82
2022/11/19 10:02:19;;;;;;;;;11.00;10.00;;;;;11.83;64.41;101143.16;3030319;22;45485;-82
2022/11/19 10:03:31;;;;;;;;;13.00;10.50;;;;;11.82;64.53;101144.09;3057248;22;45281;-81
2022/11/19 10:04:42;;;;;;;;;13.25;9.25;;;;;11.84;63.95;101139.63;3034722;22;45306;-81
2022/11/19 10:06:11;;;;;;;;;10.75;9.75;;;;;11.86;64.08;101137.81;2981967;23;45099;-81
2022/11/19 10:07:53;;;;;;;;;10.50;9.25;;;;;11.87;64.36;101131.66;2982277;23;45326;-81
2022/11/19 10:09:25;;;;;;;;;15.25;12.00;;;;;11.91;63.93;101138.53;3041624;22;45515;-81
2022/11/19 10:10:46;;;;;;;;;14.75;10.50;;;;;11.92;64.51;101142.91;3007701;22;45208;-82
2022/11/19 10:12:18;;;;;;;;;12.00;8.25;;;;;11.98;64.56;101146.22;3057663;22;45556;-82
2022/11/19 10:13:38;;;;;;;;;11.00;10.50;;;;;12.00;64.12;101139.16;3042136;22;48333;-81
2022/11/19 10:14:57;;;;;;;;;9.75;8.50;;;;;12.00;64.04;101144.41;3018821;22;45122;-82
2022/11/19 10:16:19;;;;;;;;;10.25;8.25;;;;;12.01;64.28;101139.09;3042409;22;46869;-81
2022/11/19 10:18:04;;;;;;;;;8.75;7.75;;;;;12.03;63.65;101149.56;3050006;22;45239;-81
2022/11/19 10:19:45;;;;;;;;;10.50;8.75;;;;;12.01;63.75;101149.63;3004439;22;47316;-81
2022/11/19 10:21:15;;;;;;;;;10.00;7.00;;;;;12.01;63.75;101143.50;3056795;22;44590;-81
2022/11/19 10:22:48;;;;;;;;;8.75;7.75;;;;;12.03;63.89;101144.31;3015768;22;46435;-81
2022/11/19 10:24:08;;;;;;;;;8.25;7.00;;;;;12.03;63.20;101147.81;2982428;23;45239;-81
2022/11/19 10:25:22;;;;;;;;;11.00;9.25;;;;;12.03;63.24;101141.66;2980648;23;45642;-81
2022/11/19 10:26:38;;;;;;;;;10.75;8.75;;;;;12.03;63.51;101145.16;3042496;22;45312;-81
2022/11/19 10:27:51;;;;;;;;;10.00;9.75;;;;;12.06;63.29;101144.22;3042372;22;48305;-81
2022/11/19 10:29:11;;;;;;;;;12.00;10.00;;;;;12.06;63.60;101143.34;3023053;22;45703;-81
2022/11/19 10:30:25;;;;;;;;;11.75;8.75;;;;;12.06;63.58;101141.56;3057074;22;48194;-81
2022/11/19 10:31:38;;;;;;;;;9.25;9.25;;;;;12.08;63.52;101137.09;3033853;22;45219;-81
2022/11/19 10:32:51;;;;;;;;;10.25;8.25;;;;;12.10;63.08;101135.28;3041834;22;48219;-81
2022/11/19 10:34:18;;;;;;;;;10.25;9.50;;;;;12.10;63.28;101142.34;3023307;22;45259;-81
2022/11/19 10:35:32;;;;;;;;;8.75;7.25;;;;;12.09;63.30;101138.84;3041413;22;46907;-81
2022/11/19 10:36:51;;;;;;;;;11.00;8.00;;;;;12.07;63.06;101137.19;3047216;22;45317;-81
2022/11/19 10:38:08;;;;;;;;;8.50;7.00;;;;;12.05;63.18;101139.84;3028072;22;45325;-81
2022/11/19 10:39:26;;;;;;;;;10.75;8.75;;;;;12.04;62.52;101138.13;2982399;23;44593;-81
2022/11/19 10:40:43;;;;;;;;;8.25;7.25;;;;;12.00;63.19;101134.72;3057046;22;48447;-81
2022/11/19 10:42:07;;;;;;;;;8.00;7.75;;;;;12.00;63.51;101133.88;3041018;22;45318;-81
2022/11/19 10:43:21;;;;;;;;;9.00;8.25;;;;;11.99;63.69;101132.16;3014214;22;45363;-81
2022/11/19 10:44:53;;;;;;;;;13.50;9.75;;;;;11.97;63.08;101133.97;2981757;23;44741;-81
2022/11/19 10:46:09;;;;;;;;;12.00;9.50;;;;;11.92;62.90;101135.00;2982643;23;45274;-81
2022/11/19 10:47:33;;;;;;;;;8.00;7.50;;;;;11.92;63.04;101134.13;2981752;23;44673;-81
2022/11/19 10:48:49;;;;;;;;;10.50;8.00;;;;;11.92;63.32;101136.75;2982165;23;45995;-81
2022/11/19 10:49:59;;;;;;;;;11.00;8.25;;;;;11.91;63.22;101133.25;2982900;23;45179;-81
2022/11/19 10:51:39;;;;;;;;;9.75;9.75;;;;;11.91;63.61;101135.91;3041730;22;48070;-81
2022/11/19 10:52:58;;;;;;;;;7.50;7.25;;;;;11.94;62.86;101134.94;3000198;22;45375;-81
2022/11/19 10:54:21;;;;;;;;;9.75;8.75;;;;;11.92;63.18;101132.38;3057814;22;48429;-82
2022/11/19 10:55:39;;;;;;;;;8.75;7.50;;;;;11.91;63.31;101135.91;3022043;22;44682;-82
2022/11/19 10:56:52;;;;;;;;;9.50;9.00;;;;;11.92;63.59;101134.13;2980351;23;45362;-82
2022/11/19 10:58:14;;;;;;;;;9.00;8.50;;;;;11.91;63.53;101130.63;2982035;23;45290;-81
2022/11/19 10:59:28;;;;;;;;;11.00;8.50;;;;;11.91;63.38;101130.63;3042179;22;46918;-81
2022/11/19 11:00:40;;;;;;;;;10.00;7.00;;;;;11.92;63.66;101131.50;3047352;22;44599;-82
2022/11/19 11:01:56;;;;;;;;;6.50;6.50;;;;;11.91;63.22;101137.66;3036036;22;46467;-82
2022/11/19 11:03:29;;;;;;;;;8.00;7.75;;;;;11.87;62.83;101134.28;3042933;22;45121;-82
2022/11/19 11:04:59;;;;;;;;;11.00;8.00;;;;;11.83;62.92;101132.63;3006435;22;46228;-82
2022/11/19 11:06:11;;;;;;;;;9.00;8.25;;;;;11.83;63.32;101132.63;3042079;22;45260;-82
2022/11/19 11:07:21;;;;;;;;;7.75;7.00;;;;;11.81;62.92;101139.72;3024409;22;45402;-81
2022/11/19 11:08:32;;;;;;;;;6.75;4.25;;;;;11.75;62.40;101137.31;2982876;23;45256;-81
2022/11/19 11:09:43;;;;;;;;;10.75;8.75;;;;;11.71;62.58;101131.25;2980857;23;45610;-82
2022/11/19 11:10:54;;;;;;;;;10.25;8.25;;;;;11.68;63.16;101139.28;3057198;22;45332;-81
2022/11/19 11:15:27;;;;;;;;;10.50;8.00;;;;;11.67;64.25;101130.50;2982134;23;45184;-81
2022/11/19 11:16:46;;;;;;;;;10.00;9.00;;;;;11.69;63.92;101131.31;2982491;23;45105;-81
2022/11/19 11:18:03;;;;;;;;;9.75;9.25;;;;;11.70;63.92;101138.28;3042281;22;47021;-81
2022/11/19 11:19:19;;;;;;;;;11.00;8.50;;;;;11.75;63.44;101138.16;3019474;22;45393;-82
2022/11/19 11:20:31;;;;;;;;;9.25;9.25;;;;;11.79;63.95;101141.56;3056005;22;47720;-81
2022/11/19 11:21:42;;;;;;;;;8.50;8.00;;;;;11.80;63.94;101138.84;3034727;22;44719;-81
2022/11/19 11:23:17;;;;;;;;;10.75;7.00;;;;;11.86;64.14;101139.56;2982426;23;45567;-82
2022/11/19 11:24:33;;;;;;;;;10.50;9.00;;;;;11.91;63.09;101140.28;3042802;22;45257;-81
2022/11/19 11:26:11;;;;;;;;;7.75;7.50;;;;;11.96;63.62;101135.75;3020624;22;45437;-82
2022/11/19 11:27:32;;;;;;;;;16.75;9.50;;;;;12.01;63.78;101136.47;2983283;22;45335;-81
2022/11/19 11:29:01;;;;;;;;;9.75;9.75;;;;;12.03;63.18;101126.72;2981617;23;45350;-81
2022/11/19 11:30:11;;;;;;;;;10.50;7.75;;;;;12.08;63.23;101126.56;2980678;23;45411;-81
2022/11/19 11:31:33;;;;;;;;;8.00;8.00;;;;;12.12;63.61;101132.63;3041605;22;47126;-82
2022/11/19 11:32:43;;;;;;;;;11.00;9.25;;;;;12.15;63.32;101122.84;3033747;22;45239;-81
2022/11/19 11:33:56;;;;;;;;;8.50;8.50;;;;;12.19;63.37;101122.75;3042164;22;46898;-81
2022/11/19 11:35:28;;;;;;;;;5.25;3.50;;;;;12.27;63.20;101126.00;3023686;22;45382;-82
2022/11/19 11:36:39;;;;;;;;;9.00;9.00;;;;;12.34;63.40;101131.91;2982471;23;45412;-81
2022/11/19 11:37:50;;;;;;;;;6.75;6.00;;;;;12.36;63.06;101133.59;3058240;22;45273;-81
2022/11/19 11:39:03;;;;;;;;;8.00;8.00;;;;;12.41;62.83;101125.53;3037254;22;45322;-81
2022/11/19 11:40:19;;;;;;;;;8.50;6.75;;;;;12.46;62.68;101130.63;3041715;22;44751;-81
2022/11/19 11:41:39;;;;;;;;;7.75;6.75;;;;;12.48;61.04;101124.41;3020068;22;45716;-81
2022/11/19 11:42:51;;;;;;;;;6.50;3.75;;;;;12.51;62.23;101123.44;3058040;22;45471;-81
2022/11/19 11:44:04;;;;;;;;;8.75;7.50;;;;;12.55;62.37;101124.16;3035085;22;46571;-81
2022/11/19 11:45:31;;;;;;;;;10.00;7.25;;;;;12.59;62.63;101126.63;2982573;22;45152;-81
2022/11/19 11:46:56;;;;;;;;;10.75;9.00;;;;;12.65;62.22;101127.34;2982195;23;46392;-82
2022/11/19 11:48:15;;;;;;;;;9.50;7.00;;;;;12.68;62.27;101124.59;2982705;23;45235;-82
2022/11/19 11:49:33;;;;;;;;;7.25;5.75;;;;;12.69;61.25;101126.34;3042145;22;47326;-82
2022/11/19 11:50:45;;;;;;;;;6.00;6.00;;;;;12.68;61.42;101114.06;3018327;22;44658;-81
2022/11/19 11:52:07;;;;;;;;;8.50;7.75;;;;;12.69;61.84;101121.06;3042253;22;48159;-81
2022/11/19 11:53:29;;;;;;;;;7.25;4.75;;;;;12.66;61.65;101116.75;3016259;22;45232;-81
2022/11/19 11:55:00;;;;;;;;;7.75;7.75;;;;;12.70;61.31;101122.75;2982622;22;45395;-80
2022/11/19 11:56:10;;;;;;;;;9.25;6.25;;;;;12.66;60.41;101116.75;2980931;23;45077;-81
2022/11/19 11:57:24;;;;;;;;;7.25;6.00;;;;;12.64;60.14;101125.63;3042825;22;46934;-81
2022/11/19 11:58:34;;;;;;;;;8.75;6.75;;;;;12.59;60.69;101112.63;3023410;22;45204;-81
2022/11/19 11:59:45;;;;;;;;;6.25;5.75;;;;;12.56;60.92;101113.59;2982038;23;46505;-80
2022/11/19 12:01:14;;;;;;;;;8.00;7.00;;;;;12.52;61.04;101117.22;2982609;23;44535;-81
2022/11/19 12:02:33;;;;;;;;;5.25;5.25;;;;;12.50;60.95;101116.41;2982129;23;45308;-80
2022/11/19 12:03:54;;;;;;;;;9.25;7.00;;;;;12.45;61.45;101111.31;2981909;23;45247;-80
2022/11/19 12:05:14;;;;;;;;;3.75;3.75;;;;;12.43;61.60;101114.91;2982282;23;46594;-81
2022/11/19 12:06:37;;;;;;;;;11.75;10.75;;;;;12.41;61.44;101114.09;2981590;23;45124;-80
2022/11/19 12:08:22;;;;;;;;;9.00;7.50;;;;;12.40;61.29;101121.16;2982519;23;45375;-81
2022/11/19 12:09:41;;;;;;;;;9.50;7.00;;;;;12.35;61.80;101108.13;3005803;22;45205;-80
2022/11/19 12:11:11;;;;;;;;;8.50;8.25;;;;;12.36;61.41;101111.63;3019326;22;45593;-81
2022/11/19 12:12:36;;;;;;;;;8.50;6.00;;;;;12.34;61.18;101113.47;2982391;23;45143;-80
2022/11/19 12:14:08;;;;;;;;;6.00;5.25;;;;;12.32;60.62;101120.56;3041877;22;47189;-80
2022/11/19 12:15:29;;;;;;;;;6.00;5.50;;;;;12.31;60.55;101117.06;3007512;22;45105;-80
2022/11/19 12:17:03;;;;;;;;;5.50;5.50;;;;;12.30;61.17;101117.97;3041766;22;47328;-80
2022/11/19 12:18:38;;;;;;;;;7.00;4.50;;;;;12.29;60.14;101111.00;3051701;22;44680;-80
2022/11/19 12:20:04;;;;;;;;;6.50;6.50;;;;;12.29;60.79;101116.25;3011143;22;45509;-81
2022/11/19 12:21:32;;;;;;;;;3.75;3.25;;;;;12.28;60.99;101114.53;2982285;23;45317;-80
2022/11/19 12:23:01;;;;;;;;;6.00;6.00;;;;;12.29;61.18;101110.13;2981941;23;46351;-80
2022/11/19 12:24:41;;;;;;;;;5.50;5.50;;;;;12.31;60.38;101113.56;3042274;22;45290;-80
2022/11/19 12:25:55;;;;;;;;;5.50;5.50;;;;;12.35;60.88;101115.19;2985009;22;45389;-81
2022/11/19 12:27:23;;;;;;;;;5.50;5.50;;;;;12.40;61.01;101115.88;3042971;22;45222;-80
2022/11/19 12:28:55;;;;;;;;;6.25;5.25;;;;;12.45;60.35;101113.09;3050728;22;47296;-81
2022/11/19 12:30:21;;;;;;;;;7.25;5.50;;;;;12.48;60.86;101118.25;3013873;22;44663;-81
2022/11/19 12:31:58;;;;;;;;;4.25;4.00;;;;;12.51;60.63;101110.25;3042452;22;48353;-81
2022/11/19 12:33:27;;;;;;;;;6.50;5.00;;;;;12.58;60.71;101114.38;3003973;22;45123;-81
2022/11/19 12:34:57;;;;;;;;;5.25;4.50;;;;;12.63;60.37;101100.16;3041267;22;47751;-81
2022/11/19 12:36:18;;;;;;;;;5.75;4.25;;;;;12.68;60.86;101107.00;3008362;22;44610;-81
2022/11/19 12:37:37;;;;;;;;;7.50;6.25;;;;;12.71;60.72;101104.28;2981597;23;46533;-82
2022/11/19 12:38:47;;;;;;;;;7.50;6.00;;;;;12.77;60.35;101102.28;2981942;23;44610;-81
2022/11/19 12:40:16;;;;;;;;;5.50;5.50;;;;;12.78;60.44;101098.75;3042207;22;46038;-81
2022/11/19 12:42:01;;;;;;;;;7.00;7.00;;;;;12.83;60.53;101097.69;3050301;22;44648;-81
2022/11/19 12:43:52;;;;;;;;;7.25;5.50;;;;;12.87;58.95;101089.63;3042689;22;46863;-81
2022/11/19 12:45:35;;;;;;;;;7.00;6.25;;;;;12.86;59.84;101094.06;2995386;22;45426;-82
2022/11/19 12:47:06;;;;;;;;;4.50;4.50;;;;;12.88;59.96;101088.72;3042156;22;47077;-81
2022/11/19 12:48:42;;;;;;;;;5.25;5.25;;;;;12.91;60.21;101091.25;3008198;22;45197;-80
2022/11/19 12:50:13;;;;;;;;;5.25;4.25;;;;;12.92;59.66;101093.81;2982184;23;45302;-81
2022/11/19 12:51:42;;;;;;;;;4.00;4.00;;;;;12.93;59.33;101086.78;2982263;22;45173;-81
2022/11/19 12:52:58;;;;;;;;;2.75;2.75;;;;;12.96;59.43;101086.66;3042083;22;48017;-81
2022/11/19 12:54:19;;;;;;;;;5.00;4.50;;;;;12.96;59.64;101084.03;3021242;22;44573;-81
2022/11/19 12:55:35;;;;;;;;;3.50;3.50;;;;;12.99;59.55;101089.16;2982150;23;46183;-81
2022/11/19 12:57:02;;;;;;;;;7.00;5.00;;;;;12.98;59.95;101076.91;2982375;23;45147;-81
2022/11/19 12:58:22;;;;;;;;;0.50;0.00;;;;;13.01;59.68;101089.13;2982406;23;45324;-81
2022/11/19 13:00:03;;;;;;;;;6.75;4.75;;;;;13.01;59.61;101082.06;3042745;22;44723;-81
2022/11/19 13:01:24;;;;;;;;;7.75;5.50;;;;;13.01;59.40;101083.84;3000006;22;46435;-81
2022/11/19 13:02:44;;;;;;;;;5.25;5.25;;;;;13.00;59.78;101087.41;2982396;23;44554;-81
2022/11/19 13:04:04;;;;;;;;;4.00;4.00;;;;;13.00;59.74;101088.28;3041933;22;47028;-81
2022/11/19 13:05:21;;;;;;;;;7.50;3.00;;;;;12.99;58.99;101086.53;3017494;22;44620;-81
2022/11/19 13:06:44;;;;;;;;;5.25;5.25;;;;;12.95;58.97;101090.22;2982357;23;46735;-81
2022/11/19 13:08:01;;;;;;;;;3.50;3.50;;;;;12.95;59.65;101084.94;2982472;23;45194;-81
2022/11/19 13:09:25;;;;;;;;;8.00;3.00;;;;;12.97;59.47;101084.88;3042685;22;47095;-81
2022/11/19 13:10:42;;;;;;;;;9.00;4.75;;;;;12.96;58.78;101091.94;3015006;22;45084;-81
2022/11/19 13:12:00;;;;;;;;;6.00;4.50;;;;;12.96;59.69;101097.22;3057407;22;48552;-81
2022/11/19 13:13:15;;;;;;;;;3.75;3.75;;;;;12.99;59.54;101086.53;3028768;22;44728;-81
2022/11/19 13:15:12;;;;;;;;;3.25;3.25;;;;;12.99;59.24;101099.72;2982319;23;45197;-81
2022/11/19 13:16:26;;;;;;;;;7.00;4.00;;;;;12.94;59.15;101091.13;2996938;22;45209;-81
2022/11/19 13:17:41;;;;;;;;;5.00;0.75;;;;;12.91;59.25;101081.53;2981870;23;46450;-81
2022/11/19 13:19:06;;;;;;;;;12.50;10.75;;;;;12.89;59.21;101086.03;2981336;23;45133;-81
2022/11/19 13:20:54;;;;;;;;;3.75;3.75;;;;;12.88;59.50;101094.00;3042763;22;47075;-81
2022/11/19 13:22:09;;;;;;;;;6.25;5.25;;;;;12.85;59.93;101094.09;2994240;22;45184;-81
2022/11/19 13:23:41;;;;;;;;;4.75;4.00;;;;;12.86;59.76;101087.94;2982198;23;45317;-81
2022/11/19 13:24:56;;;;;;;;;4.00;3.00;;;;;12.82;59.65;101088.03;2982216;23;44681;-81
2022/11/19 13:26:21;;;;;;;;;6.00;3.75;;;;;12.79;60.27;101090.78;2981784;23;45245;-81
2022/11/19 13:27:32;;;;;;;;;3.25;3.25;;;;;12.78;59.93;101090.84;2982495;22;44699;-81
2022/11/19 13:28:51;;;;;;;;;4.00;3.00;;;;;12.76;60.23;101092.69;2982178;23;45363;-81
2022/11/19 13:30:25;;;;;;;;;5.25;3.75;;;;;12.71;59.96;101090.22;3042769;22;44926;-81
2022/11/19 13:31:43;;;;;;;;;5.25;3.75;;;;;12.69;59.97;101087.59;3005763;22;45479;-81
2022/11/19 13:33:17;;;;;;;;;5.50;5.25;;;;;12.65;59.91;101090.41;2982443;23;45285;-81
2022/11/19 13:34:27;;;;;;;;;12.75;8.25;;;;;12.62;59.82;101093.19;2981500;23;45488;-81
2022/11/19 13:35:54;;;;;;;;;4.00;4.00;;;;;12.55;59.74;101088.13;2982433;23;45128;-81
2022/11/19 13:37:26;;;;;;;;;3.75;3.75;;;;;12.53;60.32;101092.59;3042169;22;46728;-81
2022/11/19 13:39:02;;;;;;;;;7.75;6.25;;;;;12.47;60.08;101084.91;3007576;22;45214;-81
2022/11/19 13:40:45;;;;;;;;;6.25;3.75;;;;;12.45;60.34;101092.00;2982394;23;46366;-81
2022/11/19 13:44:58;;;;;;;;;6.00;5.75;;;;;12.35;60.91;101092.31;2982233;23;45171;-81
2022/11/19 13:46:11;;;;;;;;;6.25;6.25;;;;;12.36;60.63;101098.47;2982174;23;45547;-81
2022/11/19 13:47:36;;;;;;;;;7.25;5.50;;;;;12.35;60.61;101102.00;2982296;23;44631;-81
2022/11/19 13:48:53;;;;;;;;;7.00;6.75;;;;;12.36;60.92;101104.59;3042493;22;47367;-81
2022/11/19 13:50:17;;;;;;;;;11.00;7.75;;;;;12.36;60.79;101103.72;3019820;22;45280;-81
2022/11/19 13:51:32;;;;;;;;;7.00;6.50;;;;;12.34;60.61;101100.28;2981971;23;45332;-81
2022/11/19 13:52:49;;;;;;;;;4.25;3.00;;;;;12.32;60.30;101097.69;2982066;23;45315;-81
2022/11/19 13:54:03;;;;;;;;;4.00;3.00;;;;;12.32;60.37;101102.97;2982197;23;46547;-81
2022/11/19 13:55:35;;;;;;;;;6.75;4.50;;;;;12.36;60.76;101101.09;3042914;22;45254;-81
2022/11/19 13:56:49;;;;;;;;;5.25;3.50;;;;;12.37;60.27;101100.19;3007606;22;46144;-81
2022/11/19 13:58:25;;;;;;;;;4.00;4.00;;;;;12.40;60.75;101092.16;2982003;23;45425;-81
2022/11/19 13:59:42;;;;;;;;;7.00;4.75;;;;;12.44;60.92;101091.16;2981768;23;46353;-81
2022/11/19 14:01:04;;;;;;;;;5.25;5.00;;;;;12.52;61.00;101103.19;2981960;23;45191;-81
2022/11/19 14:02:46;;;;;;;;;6.75;4.00;;;;;12.57;60.85;101099.47;3042360;22;47520;-81
2022/11/19 14:04:15;;;;;;;;;7.00;5.25;;;;;12.62;60.64;101101.94;2978477;23;44720;-81
2022/11/19 14:05:44;;;;;;;;;3.50;3.50;;;;;12.67;60.53;101096.50;3003752;22;47410;-81
2022/11/19 14:07:12;;;;;;;;;5.50;3.25;;;;;12.70;60.20;101096.38;3050637;22;44550;-81
2022/11/19 14:08:39;;;;;;;;;3.25;3.25;;;;;12.75;59.90;101101.50;3049732;22;46900;-82